createdAt,value
2016-11-23T00:00:06.226Z,100247
2016-11-23T00:01:06.214Z,100248
2016-11-23T00:02:06.288Z,100248
2016-11-23T00:03:06.383Z,100248
2016-11-23T00:04:04.364Z,100248
2016-11-23T00:05:04.458Z,100251
2016-11-23T00:06:04.476Z,100250
2016-11-23T00:07:06.543Z,100252
2016-11-23T00:08:06.616Z,100250
2016-11-23T00:09:04.701Z,100245
2016-11-23T00:10:04.805Z,100247
2016-11-23T00:11:06.858Z,100244
2016-11-23T00:12:04.872Z,100243
2016-11-23T00:13:06.985Z,100241
2016-11-23T00:14:04.997Z,100240
2016-11-23T00:15:05.064Z,100246
2016-11-23T00:16:07.158Z,100247
2016-11-23T00:17:05.244Z,100247
2016-11-23T00:18:07.299Z,100247
2016-11-23T00:19:05.218Z,100252
2016-11-23T00:20:05.315Z,100250
2016-11-23T00:21:07.318Z,100249
2016-11-23T00:22:07.309Z,100252
2016-11-23T00:23:07.319Z,100251
2016-11-23T00:24:07.417Z,100254
2016-11-23T00:25:05.467Z,100256
2016-11-23T00:26:07.560Z,100260
2016-11-23T00:27:05.562Z,100267
2016-11-23T00:28:05.660Z,100269
2016-11-23T00:29:05.691Z,100272
2016-11-23T00:30:07.710Z,100270
2016-11-23T00:31:05.736Z,100270
2016-11-23T00:32:05.879Z,100270
2016-11-23T00:33:05.816Z,100268
2016-11-23T00:34:07.940Z,100276
2016-11-23T00:35:07.983Z,100274
2016-11-23T00:36:05.946Z,100280
2016-11-23T00:37:05.961Z,100279
2016-11-23T00:38:08.058Z,100279
2016-11-23T00:39:08.076Z,100277
2016-11-23T00:40:08.205Z,100273
2016-11-23T00:41:08.299Z,100276
2016-11-23T00:42:08.307Z,100276
2016-11-23T00:43:06.358Z,100278
2016-11-23T00:44:06.452Z,100281
2016-11-23T00:45:08.516Z,100281
2016-11-23T00:46:06.601Z,100279
2016-11-23T00:47:08.596Z,100284
2016-11-23T00:48:08.650Z,100279
2016-11-23T00:49:08.685Z,100279
2016-11-23T00:50:06.789Z,100280
2016-11-23T00:51:06.801Z,100288
2016-11-23T00:52:06.881Z,100286
2016-11-23T00:53:06.906Z,100290
2016-11-23T00:54:08.913Z,100288
2016-11-23T00:55:08.988Z,100290
2016-11-23T00:56:07.078Z,100286
2016-11-23T00:57:09.184Z,100292
2016-11-23T00:58:09.879Z,100286
2016-11-23T00:59:07.137Z,100289
2016-11-23T01:00:09.194Z,100291
2016-11-23T01:01:07.284Z,100292
2016-11-23T01:02:07.366Z,100290
2016-11-23T01:03:07.373Z,100293
2016-11-23T01:04:09.471Z,100294
2016-11-23T01:05:09.501Z,100290
2016-11-23T01:06:09.500Z,100294
2016-11-23T01:07:07.617Z,100294
2016-11-23T01:08:07.552Z,100295
2016-11-23T01:09:09.628Z,100295
2016-11-23T01:10:07.685Z,100295
2016-11-23T01:11:07.778Z,100295
2016-11-23T01:12:07.871Z,100293
2016-11-23T01:13:07.871Z,100288
2016-11-23T01:14:07.922Z,100290
2016-11-23T01:15:10.032Z,100291
2016-11-23T01:16:07.952Z,100291
2016-11-23T01:17:10.011Z,100295
2016-11-23T01:18:08.109Z,100295
2016-11-23T01:19:08.116Z,100299
2016-11-23T01:20:08.161Z,100304
2016-11-23T01:21:10.203Z,100304
2016-11-23T01:22:08.312Z,100302
2016-11-23T01:23:08.273Z,100299
2016-11-23T01:24:10.370Z,100300
2016-11-23T01:25:10.439Z,100301
2016-11-23T01:26:10.511Z,100305
2016-11-23T01:27:08.475Z,100301
2016-11-23T01:28:10.539Z,100298
2016-11-23T01:29:08.560Z,100304
2016-11-23T01:30:10.618Z,100301
2016-11-23T01:31:08.642Z,100306
2016-11-23T01:32:10.680Z,100309
2016-11-23T01:33:08.648Z,100308
2016-11-23T01:34:08.660Z,100312
2016-11-23T01:35:10.786Z,100310
2016-11-23T01:36:10.835Z,100317
2016-11-23T01:37:10.861Z,100320
2016-11-23T01:38:10.876Z,100326
2016-11-23T01:39:10.856Z,100328
2016-11-23T01:40:08.852Z,100330
2016-11-23T01:41:10.970Z,100336
2016-11-23T01:42:10.970Z,100340
2016-11-23T01:43:11.050Z,100346
2016-11-23T01:44:11.038Z,100350
2016-11-23T01:45:11.158Z,100352
2016-11-23T01:46:11.163Z,100350
2016-11-23T01:47:09.225Z,100358
2016-11-23T01:48:09.231Z,100356
2016-11-23T01:49:11.332Z,100355
2016-11-23T01:50:11.440Z,100359
2016-11-23T01:51:09.457Z,100355
2016-11-23T01:52:09.466Z,100356
2016-11-23T01:53:09.505Z,100360
2016-11-23T01:54:11.531Z,100356
2016-11-23T01:55:09.497Z,100359
2016-11-23T01:56:11.583Z,100362
2016-11-23T01:57:11.676Z,100368
2016-11-23T01:58:09.727Z,100374
2016-11-23T01:59:11.818Z,100379
2016-11-23T02:00:09.780Z,100386
2016-11-23T02:01:11.950Z,100387
2016-11-23T02:02:11.984Z,100389
2016-11-23T02:03:12.015Z,100387
2016-11-23T02:04:10.100Z,100391
2016-11-23T02:05:10.091Z,100388
2016-11-23T02:06:12.155Z,100389
2016-11-23T02:07:12.251Z,100387
2016-11-23T02:08:10.268Z,100383
2016-11-23T02:09:12.355Z,100380
2016-11-23T02:10:12.379Z,100379
2016-11-23T02:11:10.313Z,100378
2016-11-23T02:12:12.406Z,100380
2016-11-23T02:13:10.340Z,100380
2016-11-23T02:14:12.407Z,100379
2016-11-23T02:15:12.504Z,100377
2016-11-23T02:16:12.467Z,100379
2016-11-23T02:17:10.456Z,100378
2016-11-23T02:18:12.570Z,100379
2016-11-23T02:19:10.622Z,100383
2016-11-23T02:20:12.684Z,100383
2016-11-23T02:21:12.712Z,100380
2016-11-23T02:22:10.652Z,100378
2016-11-23T02:23:12.778Z,100372
2016-11-23T02:24:12.760Z,100368
2016-11-23T02:25:10.739Z,100364
2016-11-23T02:26:10.747Z,100363
2016-11-23T02:27:10.841Z,100364
2016-11-23T02:28:12.897Z,100360
2016-11-23T02:29:12.911Z,100356
2016-11-23T02:30:12.943Z,100357
2016-11-23T02:31:12.951Z,100351
2016-11-23T02:32:13.054Z,100345
2016-11-23T02:33:13.074Z,100343
2016-11-23T02:34:13.067Z,100340
2016-11-23T02:35:11.123Z,100337
2016-11-23T02:36:11.131Z,100339
2016-11-23T02:37:13.245Z,100338
2016-11-23T02:38:11.261Z,100333
2016-11-23T02:39:13.271Z,100333
2016-11-23T02:40:13.383Z,100333
2016-11-23T02:41:13.365Z,100326
2016-11-23T02:42:13.421Z,100322
2016-11-23T02:43:13.387Z,100316
2016-11-23T02:44:13.511Z,100309
2016-11-23T02:45:13.485Z,100302
2016-11-23T02:46:13.609Z,100301
2016-11-23T02:47:11.606Z,100299
2016-11-23T02:48:13.697Z,100306
2016-11-23T02:49:11.750Z,100307
2016-11-23T02:50:11.824Z,100302
2016-11-23T02:51:11.806Z,100313
2016-11-23T02:52:13.907Z,100312
2016-11-23T02:53:13.902Z,100318
2016-11-23T02:54:11.892Z,100320
2016-11-23T02:55:14.040Z,100323
2016-11-23T02:56:12.001Z,100320
2016-11-23T02:57:14.088Z,100316
2016-11-23T02:58:12.090Z,100316
2016-11-23T02:59:14.185Z,100316
2016-11-23T03:00:14.220Z,100320
2016-11-23T03:01:12.273Z,100322
2016-11-23T03:02:14.328Z,100325
2016-11-23T03:03:14.412Z,100325
2016-11-23T03:04:12.480Z,100326
2016-11-23T03:05:12.507Z,100323
2016-11-23T03:06:14.498Z,100324
2016-11-23T03:07:14.599Z,100324
2016-11-23T03:08:14.588Z,100327
2016-11-23T03:09:14.669Z,100334
2016-11-23T03:10:14.670Z,100333
2016-11-23T03:11:12.777Z,100342
2016-11-23T03:12:14.831Z,100345
2016-11-23T03:13:14.986Z,100345
2016-11-23T03:14:12.943Z,100348
2016-11-23T03:15:12.934Z,100349
2016-11-23T03:16:12.987Z,100352
2016-11-23T03:17:15.048Z,100351
2016-11-23T03:18:13.053Z,100352
2016-11-23T03:19:15.255Z,100355
2016-11-23T03:20:15.286Z,100358
2016-11-23T03:21:15.267Z,100356
2016-11-23T03:22:13.319Z,100356
2016-11-23T03:23:15.419Z,100354
2016-11-23T03:24:13.398Z,100357
2016-11-23T03:25:15.483Z,100356
2016-11-23T03:26:15.584Z,100357
2016-11-23T03:27:13.595Z,100357
2016-11-23T03:28:16.600Z,100350
2016-11-23T03:29:13.688Z,100353
2016-11-23T03:30:13.674Z,100352
2016-11-23T03:31:15.751Z,100355
2016-11-23T03:32:15.872Z,100355
2016-11-23T03:33:13.772Z,100353
2016-11-23T03:34:16.063Z,100349
2016-11-23T03:35:14.054Z,100348
2016-11-23T03:36:14.023Z,100346
2016-11-23T03:37:13.961Z,100348
2016-11-23T03:38:14.137Z,100345
2016-11-23T03:39:16.211Z,100350
2016-11-23T03:40:14.192Z,100350
2016-11-23T03:41:14.230Z,100349
2016-11-23T03:42:14.341Z,100349
2016-11-23T03:43:16.358Z,100350
2016-11-23T03:44:16.378Z,100349
2016-11-23T03:45:14.342Z,100350
2016-11-23T03:46:16.506Z,100351
2016-11-23T03:47:16.573Z,100358
2016-11-23T03:48:14.787Z,100359
2016-11-23T03:49:16.966Z,100363
2016-11-23T03:50:14.649Z,100364
2016-11-23T03:51:14.665Z,100361
2016-11-23T03:52:14.787Z,100366
2016-11-23T03:53:17.011Z,100361
2016-11-23T03:54:14.870Z,100357
2016-11-23T03:55:14.931Z,100356
2016-11-23T03:56:14.953Z,100351
2016-11-23T03:57:15.022Z,100347
2016-11-23T03:58:15.014Z,100347
2016-11-23T03:59:15.113Z,100349
2016-11-23T04:00:17.221Z,100347
2016-11-23T04:01:15.285Z,100349
2016-11-23T04:02:17.265Z,100350
2016-11-23T04:03:17.276Z,100349
2016-11-23T04:04:15.285Z,100348
2016-11-23T04:05:17.358Z,100346
2016-11-23T04:06:15.399Z,100347
2016-11-23T04:07:17.529Z,100347
2016-11-23T04:08:15.503Z,100348
2016-11-23T04:09:17.491Z,100351
2016-11-23T04:10:15.538Z,100350
2016-11-23T04:11:15.655Z,100354
2016-11-23T04:12:15.656Z,100353
2016-11-23T04:13:15.688Z,100349
2016-11-23T04:14:15.748Z,100352
2016-11-23T04:15:17.909Z,100354
2016-11-23T04:16:17.946Z,100359
2016-11-23T04:17:18.043Z,100356
2016-11-23T04:18:18.109Z,100361
2016-11-23T04:19:16.107Z,100361
2016-11-23T04:20:18.144Z,100362
2016-11-23T04:21:18.235Z,100363
2016-11-23T04:22:18.235Z,100366
2016-11-23T04:23:18.305Z,100366
2016-11-23T04:24:18.366Z,100372
2016-11-23T04:25:18.388Z,100372
2016-11-23T04:26:18.461Z,100371
2016-11-23T04:27:18.514Z,100373
2016-11-23T04:28:16.498Z,100369
2016-11-23T04:29:16.578Z,100372
2016-11-23T04:30:16.610Z,100369
2016-11-23T04:31:16.659Z,100363
2016-11-23T04:32:18.827Z,100365
2016-11-23T04:33:18.829Z,100364
2016-11-23T04:34:18.866Z,100364
2016-11-23T04:35:18.993Z,100367
2016-11-23T04:36:19.049Z,100361
2016-11-23T04:37:16.969Z,100364
2016-11-23T04:38:16.964Z,100363
2016-11-23T04:39:17.064Z,100364
2016-11-23T04:40:17.089Z,100362
2016-11-23T04:41:19.256Z,100357
2016-11-23T04:42:19.288Z,100363
2016-11-23T04:43:19.299Z,100367
2016-11-23T04:44:19.351Z,100369
2016-11-23T04:45:17.308Z,100364
2016-11-23T04:46:17.371Z,100363
2016-11-23T04:47:17.413Z,100361
2016-11-23T04:48:17.527Z,100362
2016-11-23T04:49:17.530Z,100365
2016-11-23T04:50:19.606Z,100371
2016-11-23T04:51:17.642Z,100374
2016-11-23T04:52:19.664Z,100375
2016-11-23T04:53:17.700Z,100379
2016-11-23T04:54:17.801Z,100380
2016-11-23T04:55:17.877Z,100376
2016-11-23T04:56:20.002Z,100376
2016-11-23T04:57:19.982Z,100375
2016-11-23T04:58:18.037Z,100377
2016-11-23T04:59:18.065Z,100378
2016-11-23T05:00:18.133Z,100376
2016-11-23T05:01:20.191Z,100374
2016-11-23T05:02:20.295Z,100372
2016-11-23T05:03:20.372Z,100374
2016-11-23T05:04:20.411Z,100374
2016-11-23T05:05:20.403Z,100375
2016-11-23T05:06:20.527Z,100371
2016-11-23T05:07:18.462Z,100370
2016-11-23T05:08:20.560Z,100369
2016-11-23T05:09:20.604Z,100370
2016-11-23T05:10:20.667Z,100368
2016-11-23T05:11:18.696Z,100371
2016-11-23T05:12:20.808Z,100372
2016-11-23T05:13:18.826Z,100377
2016-11-23T05:14:18.915Z,100376
2016-11-23T05:15:20.934Z,100376
2016-11-23T05:16:20.996Z,100378
2016-11-23T05:17:21.072Z,100378
2016-11-23T05:18:21.051Z,100378
2016-11-23T05:19:19.084Z,100376
2016-11-23T05:20:21.226Z,100370
2016-11-23T05:21:19.233Z,100366
2016-11-23T05:22:21.228Z,100363
2016-11-23T05:23:19.334Z,100361
2016-11-23T05:24:21.311Z,100360
2016-11-23T05:25:19.399Z,100360
2016-11-23T05:26:21.409Z,100359
2016-11-23T05:27:19.520Z,100360
2016-11-23T05:28:21.645Z,100362
2016-11-23T05:29:21.638Z,100360
2016-11-23T05:30:21.699Z,100359
2016-11-23T05:31:19.741Z,100357
2016-11-23T05:32:21.887Z,100358
2016-11-23T05:33:19.920Z,100357
2016-11-23T05:34:21.982Z,100360
2016-11-23T05:35:22.038Z,100355
2016-11-23T05:36:20.135Z,100357
2016-11-23T05:37:22.182Z,100358
2016-11-23T05:38:22.257Z,100355
2016-11-23T05:39:22.299Z,100353
2016-11-23T05:40:20.294Z,100359
2016-11-23T05:41:22.466Z,100351
2016-11-23T05:42:20.501Z,100354
2016-11-23T05:43:22.549Z,100353
2016-11-23T05:44:20.633Z,100352
2016-11-23T05:45:22.766Z,100360
2016-11-23T05:46:22.778Z,100352
2016-11-23T05:47:20.795Z,100352
2016-11-23T05:48:22.959Z,100354
2016-11-23T05:49:21.094Z,100353
2016-11-23T05:50:21.024Z,100351
2016-11-23T05:51:21.222Z,100351
2016-11-23T05:52:23.358Z,100354
2016-11-23T05:53:23.396Z,100351
2016-11-23T05:54:23.432Z,100355
2016-11-23T05:55:23.454Z,100353
2016-11-23T05:56:21.547Z,100353
2016-11-23T05:57:23.547Z,100352
2016-11-23T05:58:23.582Z,100350
2016-11-23T05:59:21.619Z,100350
2016-11-23T06:00:23.768Z,100349
2016-11-23T06:01:23.751Z,100349
2016-11-23T06:02:21.770Z,100357
2016-11-23T06:03:21.821Z,100360
2016-11-23T06:04:23.732Z,100365
2016-11-23T06:05:21.731Z,100363
2016-11-23T06:06:21.677Z,100371
2016-11-23T06:07:23.902Z,100368
2016-11-23T06:08:24.001Z,100370
2016-11-23T06:09:23.906Z,100365
2016-11-23T06:10:24.003Z,100366
2016-11-23T06:11:24.008Z,100370
2016-11-23T06:12:22.122Z,100367
2016-11-23T06:13:22.248Z,100373
2016-11-23T06:14:24.236Z,100370
2016-11-23T06:15:24.261Z,100374
2016-11-23T06:16:22.220Z,100378
2016-11-23T06:17:22.277Z,100378
2016-11-23T06:18:22.351Z,100375
2016-11-23T06:19:24.597Z,100380
2016-11-23T06:20:22.519Z,100380
2016-11-23T06:21:24.594Z,100378
2016-11-23T06:22:24.690Z,100382
2016-11-23T06:23:24.747Z,100378
2016-11-23T06:24:24.849Z,100380
2016-11-23T06:25:22.859Z,100381
2016-11-23T06:26:25.033Z,100384
2016-11-23T06:27:25.095Z,100383
2016-11-23T06:28:23.113Z,100385
2016-11-23T06:29:25.179Z,100389
2016-11-23T06:30:23.285Z,100388
2016-11-23T06:31:23.404Z,100389
2016-11-23T06:32:25.486Z,100392
2016-11-23T06:33:25.556Z,100391
2016-11-23T06:34:23.601Z,100399
2016-11-23T06:35:25.667Z,100402
2016-11-23T06:36:25.622Z,100398
2016-11-23T06:38:57.682Z,100406
2016-11-23T06:39:59.837Z,100404
2016-11-23T06:40:57.748Z,100403
2016-11-23T06:41:57.947Z,100405
2016-11-23T06:43:00.131Z,100398
2016-11-23T06:43:57.970Z,100404
2016-11-23T06:44:58.698Z,100398
2016-11-23T06:46:00.108Z,100399
2016-11-23T06:46:58.821Z,100407
2016-11-23T06:47:58.111Z,100408
2016-11-23T06:49:00.248Z,100405
2016-11-23T06:50:00.862Z,100407
2016-11-23T06:51:00.319Z,100408
2016-11-23T06:51:58.381Z,100408
2016-11-23T06:53:00.501Z,100409
2016-11-23T06:53:59.355Z,100412
2016-11-23T06:54:58.726Z,100415
2016-11-23T06:55:58.740Z,100414
2016-11-23T06:57:00.820Z,100418
2016-11-23T06:57:58.828Z,100412
2016-11-23T06:59:00.883Z,100416
2016-11-23T07:00:00.835Z,100420
2016-11-23T07:00:58.846Z,100418
2016-11-23T07:01:58.922Z,100422
2016-11-23T07:02:58.958Z,100429
2016-11-23T07:04:00.937Z,100430
2016-11-23T07:04:59.002Z,100432
2016-11-23T07:05:59.168Z,100430
2016-11-23T07:07:01.243Z,100430
2016-11-23T07:08:01.266Z,100430
2016-11-23T07:08:59.317Z,100431
2016-11-23T07:09:59.260Z,100435
2016-11-23T07:10:59.340Z,100437
2016-11-23T07:12:01.400Z,100442
2016-11-23T07:12:59.438Z,100446
2016-11-23T07:13:59.503Z,100449
2016-11-23T07:14:59.508Z,100451
2016-11-23T07:15:59.536Z,100451
2016-11-23T07:17:01.605Z,100450
2016-11-23T07:17:59.633Z,100452
2016-11-23T07:19:01.779Z,100452
2016-11-23T07:19:59.827Z,100448
2016-11-23T07:21:00.391Z,100452
2016-11-23T07:21:59.837Z,100455
2016-11-23T07:23:01.977Z,100452
2016-11-23T07:23:59.985Z,100453
2016-11-23T07:25:03.001Z,100452
2016-11-23T07:26:00.677Z,100451
2016-11-23T07:27:01.494Z,100447
2016-11-23T07:28:02.247Z,100445
2016-11-23T07:29:02.586Z,100444
2016-11-23T07:30:02.336Z,100441
2016-11-23T07:31:00.344Z,100445
2016-11-23T07:32:00.468Z,100451
2016-11-23T07:33:02.493Z,100448
2016-11-23T07:34:02.556Z,100453
2016-11-23T07:35:05.280Z,100455
2016-11-23T07:36:02.725Z,100453
2016-11-23T07:37:02.822Z,100452
2016-11-23T07:38:00.751Z,100453
2016-11-23T07:39:00.766Z,100455
2016-11-23T07:40:04.108Z,100456
2016-11-23T07:41:00.890Z,100457
2016-11-23T07:42:00.865Z,100455
2016-11-23T07:43:00.876Z,100459
2016-11-23T07:44:02.925Z,100461
2016-11-23T07:45:03.111Z,100465
2016-11-23T07:46:02.990Z,100464
2016-11-23T07:47:01.055Z,100465
2016-11-23T07:48:01.060Z,100465
2016-11-23T07:49:04.978Z,100462
2016-11-23T07:50:03.248Z,100467
2016-11-23T07:51:01.158Z,100467
2016-11-23T07:52:01.221Z,100465
2016-11-23T07:53:03.924Z,100468
2016-11-23T07:54:01.865Z,100470
2016-11-23T07:55:01.378Z,100475
2016-11-23T07:56:04.041Z,100475
2016-11-23T07:57:01.560Z,100473
2016-11-23T07:58:02.112Z,100480
2016-11-23T07:59:05.367Z,100480
2016-11-23T08:00:04.195Z,100486
2016-11-23T08:01:03.675Z,100483
2016-11-23T08:02:02.333Z,100479
2016-11-23T08:03:02.177Z,100479
2016-11-23T08:04:04.346Z,100479
2016-11-23T08:05:06.370Z,100478
2016-11-23T08:06:02.123Z,100470
2016-11-23T08:07:02.179Z,100472
2016-11-23T08:08:03.842Z,100472
2016-11-23T08:09:02.588Z,100470
2016-11-23T08:10:02.477Z,100471
2016-11-23T08:11:03.957Z,100467
2016-11-23T08:12:03.984Z,100475
2016-11-23T08:13:02.072Z,100476
2016-11-23T08:14:02.046Z,100480
2016-11-23T08:15:04.723Z,100478
2016-11-23T08:16:04.103Z,100479
2016-11-23T08:17:04.223Z,100477
2016-11-23T08:18:06.894Z,100478
2016-11-23T08:19:02.929Z,100479
2016-11-23T08:20:04.437Z,100480
2016-11-23T08:21:04.412Z,100480
2016-11-23T08:22:05.116Z,100475
2016-11-23T08:23:04.548Z,100474
2016-11-23T08:24:04.523Z,100463
2016-11-23T08:25:02.485Z,100465
2016-11-23T08:26:02.600Z,100462
2016-11-23T08:27:03.820Z,100460
2016-11-23T08:28:04.605Z,100463
2016-11-23T08:29:02.718Z,100466
2016-11-23T08:30:04.804Z,100467
2016-11-23T08:31:04.869Z,100466
2016-11-23T08:32:02.840Z,100468
2016-11-23T08:33:02.959Z,100463
2016-11-23T08:34:03.679Z,100469
2016-11-23T08:35:03.123Z,100468
2016-11-23T08:36:03.228Z,100470
2016-11-23T08:37:05.848Z,100463
2016-11-23T08:38:03.223Z,100465
2016-11-23T08:39:03.187Z,100462
2016-11-23T08:40:05.424Z,100466
2016-11-23T08:41:05.531Z,100467
2016-11-23T08:42:05.466Z,100465
2016-11-23T08:43:06.210Z,100465
2016-11-23T08:44:05.515Z,100470
2016-11-23T08:45:03.559Z,100466
2016-11-23T08:46:03.710Z,100465
2016-11-23T08:47:05.648Z,100467
2016-11-23T08:48:06.406Z,100468
2016-11-23T08:49:05.877Z,100465
2016-11-23T08:50:03.824Z,100461
2016-11-23T08:51:05.820Z,100465
2016-11-23T08:52:03.924Z,100465
2016-11-23T08:53:06.704Z,100464
2016-11-23T08:54:06.003Z,100460
2016-11-23T08:55:04.654Z,100462
2016-11-23T08:56:06.801Z,100467
2016-11-23T08:57:04.843Z,100467
2016-11-23T08:58:06.975Z,100469
2016-11-23T08:59:06.995Z,100470
2016-11-23T09:00:05.010Z,100474
2016-11-23T09:01:07.151Z,100476
2016-11-23T09:02:06.355Z,100477
2016-11-23T09:03:05.870Z,100475
2016-11-23T09:04:10.918Z,100479
2016-11-23T09:05:09.656Z,100479
2016-11-23T09:06:08.200Z,100483
2016-11-23T09:07:10.263Z,100477
2016-11-23T09:08:09.980Z,100477
2016-11-23T09:09:15.000Z,100477
2016-11-23T09:10:08.673Z,100471
2016-11-23T09:11:09.479Z,100475
2016-11-23T09:12:10.142Z,100476
2016-11-23T09:13:10.263Z,100480
2016-11-23T09:14:14.815Z,100478
2016-11-23T09:15:10.667Z,100477
2016-11-23T09:16:09.056Z,100480
2016-11-23T09:17:06.906Z,100485
2016-11-23T09:18:08.377Z,100486
2016-11-23T09:19:10.859Z,100486
2016-11-23T09:20:11.149Z,100482
2016-11-23T09:21:09.090Z,100484
2016-11-23T09:22:11.506Z,100484
2016-11-23T09:23:12.140Z,100490
2016-11-23T09:24:08.687Z,100488
2016-11-23T09:25:06.241Z,100495
2016-11-23T09:26:07.889Z,100499
2016-11-23T09:27:07.836Z,100494
2016-11-23T09:28:07.530Z,100491
2016-11-23T09:29:09.577Z,100484
2016-11-23T09:30:05.646Z,100483
2016-11-23T09:31:07.713Z,100491
2016-11-23T09:32:08.598Z,100496
2016-11-23T09:33:06.892Z,100492
2016-11-23T09:34:05.751Z,100488
2016-11-23T09:35:08.835Z,100489
2016-11-23T09:36:06.866Z,100490
2016-11-23T09:37:07.887Z,100485
2016-11-23T09:38:06.924Z,100487
2016-11-23T09:39:05.951Z,100486
2016-11-23T09:40:10.221Z,100492
2016-11-23T09:41:07.754Z,100492
2016-11-23T09:42:09.583Z,100493
2016-11-23T09:43:06.707Z,100490
2016-11-23T09:44:08.196Z,100500
2016-11-23T09:45:08.437Z,100503
2016-11-23T09:46:10.411Z,100501
2016-11-23T09:47:08.239Z,100492
2016-11-23T09:48:10.688Z,100495
2016-11-23T09:49:11.630Z,100491
2016-11-23T09:50:12.126Z,100495
2016-11-23T09:51:11.770Z,100487
2016-11-23T09:52:09.000Z,100489
2016-11-23T09:53:09.900Z,100490
2016-11-23T09:54:09.992Z,100491
2016-11-23T09:55:12.048Z,100492
2016-11-23T09:56:07.096Z,100491
2016-11-23T09:57:06.541Z,100491
2016-11-23T09:58:10.153Z,100490
2016-11-23T09:59:06.775Z,100490
2016-11-23T10:00:10.266Z,100486
2016-11-23T10:01:08.871Z,100489
2016-11-23T10:02:09.457Z,100490
2016-11-23T10:04:07.603Z,100488
2016-11-23T10:05:11.945Z,100487
2016-11-23T10:06:10.338Z,100496
2016-11-23T10:07:09.702Z,100497
2016-11-23T10:08:09.776Z,100501
2016-11-23T10:09:10.449Z,100493
2016-11-23T10:10:09.717Z,100493
2016-11-23T10:11:09.232Z,100489
2016-11-23T10:12:09.906Z,100489
2016-11-23T10:13:07.984Z,100484
2016-11-23T10:14:15.928Z,100482
2016-11-23T10:15:08.141Z,100487
2016-11-23T10:16:08.609Z,100492
2016-11-23T10:17:08.868Z,100491
2016-11-23T10:18:11.140Z,100485
2016-11-23T10:19:11.423Z,100487
2016-11-23T10:20:10.289Z,100491
2016-11-23T10:21:09.924Z,100490
2016-11-23T10:22:09.124Z,100489
2016-11-23T10:23:11.301Z,100486
2016-11-23T10:24:10.075Z,100492
2016-11-23T10:25:11.386Z,100492
2016-11-23T10:26:10.199Z,100499
2016-11-23T10:27:11.474Z,100501
2016-11-23T10:28:08.745Z,100498
2016-11-23T10:29:11.034Z,100496
2016-11-23T10:30:11.667Z,100491
2016-11-23T10:31:10.544Z,100489
2016-11-23T10:32:09.218Z,100493
2016-11-23T10:33:10.599Z,100498
2016-11-23T10:34:10.297Z,100500
2016-11-23T10:35:10.603Z,100502
2016-11-23T10:36:09.993Z,100501
2016-11-23T10:37:08.689Z,100496
2016-11-23T10:38:10.754Z,100495
2016-11-23T10:39:08.715Z,100492
2016-11-23T10:40:11.499Z,100492
2016-11-23T10:41:14.768Z,100485
2016-11-23T10:42:11.555Z,100481
2016-11-23T10:43:11.018Z,100483
2016-11-23T10:44:12.120Z,100481
2016-11-23T10:45:12.091Z,100481
2016-11-23T10:46:11.752Z,100485
2016-11-23T10:47:14.314Z,100484
2016-11-23T10:48:16.997Z,100480
2016-11-23T10:49:12.150Z,100485
2016-11-23T10:50:16.623Z,100485
2016-11-23T10:51:13.556Z,100483
2016-11-23T10:52:12.116Z,100483
2016-11-23T10:53:10.963Z,100483
2016-11-23T10:54:13.049Z,100482
2016-11-23T10:55:11.715Z,100484
2016-11-23T10:56:13.039Z,100484
2016-11-23T10:57:10.418Z,100487
2016-11-23T10:58:13.027Z,100488
2016-11-23T10:59:14.194Z,100492
2016-11-23T11:00:11.314Z,100490
2016-11-23T11:01:12.019Z,100491
2016-11-23T11:02:09.930Z,100491
2016-11-23T11:03:10.764Z,100495
2016-11-23T11:04:12.173Z,100495
2016-11-23T11:05:12.224Z,100497
2016-11-23T11:06:10.281Z,100496
2016-11-23T11:07:12.306Z,100492
2016-11-23T11:08:12.924Z,100492
2016-11-23T11:09:13.648Z,100491
2016-11-23T11:10:14.308Z,100483
2016-11-23T11:11:11.771Z,100485
2016-11-23T11:12:10.561Z,100480
2016-11-23T11:13:13.735Z,100482
2016-11-23T11:14:10.737Z,100483
2016-11-23T11:15:12.791Z,100485
2016-11-23T11:16:11.404Z,100484
2016-11-23T11:17:15.566Z,100485
2016-11-23T11:18:13.677Z,100488
2016-11-23T11:19:14.385Z,100492
2016-11-23T11:20:14.467Z,100488
2016-11-23T11:21:14.042Z,100490
2016-11-23T11:22:11.771Z,100488
2016-11-23T11:23:14.878Z,100488
2016-11-23T11:24:11.068Z,100491
2016-11-23T11:25:13.227Z,100490
2016-11-23T11:26:13.298Z,100489
2016-11-23T11:27:15.564Z,100491
2016-11-23T11:28:12.017Z,100491
2016-11-23T11:29:15.991Z,100494
2016-11-23T11:30:12.949Z,100496
2016-11-23T11:31:13.530Z,100496
2016-11-23T11:32:14.481Z,100494
2016-11-23T11:33:13.297Z,100493
2016-11-23T11:34:20.088Z,100493
2016-11-23T11:35:15.837Z,100502
2016-11-23T11:36:17.468Z,100501
2016-11-23T11:37:11.625Z,100505
2016-11-23T11:38:16.450Z,100503
2016-11-23T11:39:16.290Z,100501
2016-11-23T11:40:15.668Z,100499
2016-11-23T11:41:11.800Z,100492
2016-11-23T11:42:17.368Z,100492
2016-11-23T11:43:13.146Z,100492
2016-11-23T11:44:14.787Z,100490
2016-11-23T11:45:12.600Z,100492
2016-11-23T11:46:14.832Z,100490
2016-11-23T11:47:14.048Z,100496
2016-11-23T11:48:14.177Z,100494
2016-11-23T11:49:12.771Z,100495
2016-11-23T11:50:13.393Z,100495
2016-11-23T11:51:12.825Z,100495
2016-11-23T11:52:13.558Z,100490
2016-11-23T11:53:14.234Z,100492
2016-11-23T11:54:13.077Z,100484
2016-11-23T11:55:13.076Z,100480
2016-11-23T11:56:12.483Z,100483
2016-11-23T11:57:12.548Z,100485
2016-11-23T11:58:12.598Z,100490
2016-11-23T11:59:13.239Z,100493
2016-11-23T12:00:14.466Z,100491
2016-11-23T12:01:12.641Z,100492
2016-11-23T12:02:16.436Z,100490
2016-11-23T12:03:13.331Z,100491
2016-11-23T12:04:14.054Z,100489
2016-11-23T12:05:14.878Z,100492
2016-11-23T12:06:13.574Z,100492
2016-11-23T12:07:15.043Z,100500
2016-11-23T12:08:12.997Z,100499
2016-11-23T12:09:15.070Z,100500
2016-11-23T12:10:13.710Z,100487
2016-11-23T12:11:13.093Z,100489
2016-11-23T12:12:15.184Z,100478
2016-11-23T12:13:16.151Z,100478
2016-11-23T12:14:14.281Z,100477
2016-11-23T12:15:15.265Z,100483
2016-11-23T12:16:15.280Z,100489
2016-11-23T12:17:15.348Z,100490
2016-11-23T12:18:14.037Z,100496
2016-11-23T12:19:14.051Z,100497
2016-11-23T12:20:14.775Z,100497
2016-11-23T12:21:15.563Z,100502
2016-11-23T12:22:16.415Z,100502
2016-11-23T12:23:18.286Z,100507
2016-11-23T12:24:15.746Z,100507
2016-11-23T12:25:16.769Z,100504
2016-11-23T12:26:13.912Z,100502
2016-11-23T12:27:17.299Z,100498
2016-11-23T12:28:15.977Z,100497
2016-11-23T12:29:14.432Z,100493
2016-11-23T12:30:16.078Z,100491
2016-11-23T12:31:16.070Z,100487